METAR Formatted Surface Weather Observation
Issued by NWS

Home | Current Version | Previous Version | Text Only | Print | Product List | Glossary On
Versions: 1 2 3 4 5 6 7 8
000
SAUS44 KLCH 040020
MTRP92
METAR KP92 032353Z AUTO VRB05KT 17/15 A2991 RMK AO1 SLP128 T01720150
10200 20172 55003



USA.gov is the U.S. government's official web portal to all federal, state and local government web resources and services.